Kotzebue, AK (99752)

2:30 AM AKDT on August 27, 2016 (GMT -0800)
Wien Memorial | | Change Station

Elev 16 ft 66.88 °N, 162.60 °W | Updated 37 minutes ago

Overcast
Overcast
57 °F
Feels Like 57 °F
N
9
Wind Variable Wind from West

Today
High -- | Low -- °F
--% Chance of Precip.
Yesterday
High -- | Low -- °F
Precip. -- in
Pressure 30.23 in
Visibility 10.0 miles
Clouds Overcast 5000 ft
Dew Point 53 °F
Humidity 87%
Rainfall 0.00 in
Snow Depth Not available.
7:04 AM 10:31 PM
Waning Crescent, 25% visible
METAR PAOT 270953Z 27008KT 10SM OVC050 14/12 A3023 RMK AO2 SLP236 T01390117
Pressure 30.23 in
Visibility 10.0 miles
Clouds Overcast 5000 ft
Dew Point 53 °F
Humidity 87%
Rainfall 0.00 in
Snow Depth Not available.
7:04 AM 10:31 PM
Waning Crescent, 25% visible
METAR PAOT 270953Z 27008KT 10SM OVC050 14/12 A3023 RMK AO2 SLP236 T01390117

10-Day Weather Forecast

Almanac

Astronomy

Aug. 27, 2016 Rise Set
Actual Time
Civil Twilight
Nautical Twilight
Astronomical Twilight
Moon
Length of Visible Light
Length of Day
Tomorrow will be .
, % of the Moon is Illuminated

Today's Extremes

State Highs State Lows

Community

WunderPhotos

Upload Photos

1,935,321 photos uploaded!

WunderBlog® & News

Nearby

Air Quality

  Air Quality AQ Index Pollutant
Not available.

Snow Depth

Station Depth Elevation

Earthquake Activity

City Distance Mag. Time & Date
Minimum magnitude displayed is 2.5.

Coastal Water Temperatures

Place Temperature

Stations

Nearby Weather Stations

Station Location Temp. Windchill Dew Point Humidity Wind Precip. Elev Updated Type
                   

Watches & Warnings

There are currently no watches in effect.